createdAt,value
2022-09-07T00:09:12.268Z,12637.12988
2022-09-07T00:24:14.552Z,12549.55469
2022-09-07T00:39:17.187Z,6710.29688
2022-09-07T00:54:19.513Z,1607.42029
2022-09-07T01:09:21.803Z,1337.16272
2022-09-07T01:24:24.033Z,1070.67188
2022-09-07T01:39:26.323Z,692.12299
2022-09-07T01:54:28.608Z,397.38217
2022-09-07T02:09:30.812Z,205.28273
2022-09-07T02:24:33.058Z,72.50813
2022-09-07T02:39:35.710Z,10.3583
2022-09-07T02:54:38.032Z,0.94166
2022-09-07T03:09:40.261Z,0
2022-09-07T03:24:42.495Z,0
2022-09-07T03:39:44.898Z,0
2022-09-07T03:54:47.357Z,0
2022-09-07T04:09:49.607Z,0
2022-09-07T04:24:51.874Z,0
2022-09-07T04:39:54.211Z,0
2022-09-07T04:54:56.548Z,0
2022-09-07T05:09:58.737Z,0
2022-09-07T05:25:00.952Z,0
2022-09-07T05:40:03.287Z,0
2022-09-07T05:55:28.129Z,0
2022-09-07T06:10:45.971Z,0
2022-09-07T06:25:48.271Z,0
2022-09-07T06:40:50.674Z,0
2022-09-07T06:55:53.056Z,0
2022-09-07T07:10:55.290Z,0
2022-09-07T07:25:57.564Z,0
2022-09-07T07:56:32.153Z,0
2022-09-07T08:11:34.512Z,0
2022-09-07T08:26:36.750Z,0
2022-09-07T08:41:38.955Z,0
2022-09-07T08:57:20.428Z,0
2022-09-07T09:12:23.247Z,0
2022-09-07T09:27:25.428Z,0
2022-09-07T09:42:27.858Z,0
2022-09-07T09:57:30.107Z,0
2022-09-07T10:12:32.323Z,0
2022-09-07T10:27:34.584Z,0
2022-09-07T10:42:36.864Z,0
2022-09-07T10:57:39.280Z,0
2022-09-07T11:12:41.670Z,0
2022-09-07T11:27:43.854Z,0
2022-09-07T11:42:46.087Z,0
2022-09-07T11:57:52.384Z,0
2022-09-07T12:12:57.175Z,0
2022-09-07T12:27:59.417Z,0
2022-09-07T12:43:09.527Z,0.94166
2022-09-07T12:58:12.352Z,10.3583
2022-09-07T13:13:14.657Z,74.39145
2022-09-07T13:28:17.257Z,280.61584
2022-09-07T13:43:19.484Z,690.23962
2022-09-07T13:58:21.702Z,1094.2135
2022-09-07T14:13:23.936Z,1249.58801
2022-09-07T14:28:26.421Z,8596.4502
2022-09-07T14:43:28.592Z,12704.92969
2022-09-07T14:58:31.220Z,15251.18848
2022-09-07T15:13:33.708Z,28259.33398
2022-09-07T15:44:08.485Z,2798.62524
2022-09-07T15:59:10.735Z,3024.62451
2022-09-07T16:14:12.953Z,3856.11377
2022-09-07T16:29:15.299Z,4032.20483
2022-09-07T16:44:17.511Z,3371.15674
2022-09-07T16:59:19.743Z,2787.3252
2022-09-07T17:14:21.937Z,2492.58447
2022-09-07T17:29:24.166Z,3414.47339
2022-09-07T17:44:26.413Z,3750.64746
2022-09-07T18:15:01.323Z,4676.30322
2022-09-07T18:30:03.630Z,4685.71973
2022-09-07T18:45:28.978Z,3509.58154
2022-09-07T19:00:31.499Z,7645.36914
2022-09-07T19:15:36.828Z,7771.55225
2022-09-07T19:30:39.832Z,5873.15771
2022-09-07T19:45:42.085Z,9363.90625
2022-09-07T20:00:44.330Z,9575.78027
2022-09-07T20:15:46.674Z,6708.41357
2022-09-07T20:30:54.001Z,5390.08447
2022-09-07T20:45:56.191Z,4902.30225
2022-09-07T21:00:58.453Z,5775.22461
2022-09-07T21:16:00.777Z,8245.20898
2022-09-07T21:31:03.068Z,5480.48389
2022-09-07T21:46:08.012Z,7746.12744
2022-09-07T22:01:11.056Z,5890.10791
2022-09-07T22:16:13.344Z,4797.77783
2022-09-07T22:31:15.751Z,6463.58105
2022-09-07T22:46:18.175Z,7574.74463
2022-09-07T23:01:20.572Z,7499.41162
2022-09-07T23:16:22.840Z,7046.47119
2022-09-07T23:31:25.341Z,6843.07178
2022-09-07T23:46:27.716Z,6947.59619
